Time;durP1;ratioP1;P1;durP2;ratioP2;P2;SDS_P1;SDS_P2;PMS_P1;PMS_P2;Temp;Humidity;BMP_temperature;BMP_pressure;BME280_temperature;BME280_humidity;BME280_pressure;Samples;Min_cycle;Max_cycle;Signal;HPM_P1;HPM_P2
2023/01/14 00:02:25;;;;;;;24.25;3.38;;;8.20;99.90;;;;;;4978769;28;20459;-82
2023/01/14 00:04:51;;;;;;;19.20;3.08;;;8.20;99.90;;;;;;4978914;28;20035;-82
2023/01/14 00:07:16;;;;;;;14.57;2.47;;;8.20;99.90;;;;;;4962473;28;20130;-83
2023/01/14 00:09:43;;;;;;;26.95;3.67;;;8.20;99.90;;;;;;4962977;28;20026;-82
2023/01/14 00:12:08;;;;;;;15.40;3.42;;;8.20;99.90;;;;;;4978963;28;20090;-82
2023/01/14 00:14:34;;;;;;;19.52;4.10;;;8.10;99.90;;;;;;4962524;28;20034;-82
2023/01/14 00:17:00;;;;;;;17.90;3.50;;;8.10;99.90;;;;;;4962632;28;20459;-82
2023/01/14 00:19:27;;;;;;;20.58;3.67;;;8.10;99.90;;;;;;4978356;28;20027;-82
2023/01/14 00:21:56;;;;;;;15.27;3.50;;;8.10;99.90;;;;;;4962029;28;20030;-82
2023/01/14 00:24:23;;;;;;;15.15;2.90;;;8.10;99.90;;;;;;4962712;28;20065;-83
2023/01/14 00:26:51;;;;;;;25.25;4.35;;;8.00;99.90;;;;;;4959245;28;20505;-82
2023/01/14 00:29:26;;;;;;;18.15;3.72;;;8.00;99.90;;;;;;4975220;28;20026;-83
2023/01/14 00:31:57;;;;;;;20.92;4.18;;;8.00;99.90;;;;;;4959308;28;20382;-82
2023/01/14 00:34:28;;;;;;;17.67;4.25;;;8.00;99.90;;;;;;4959089;28;20474;-82
2023/01/14 00:36:54;;;;;;;25.35;3.70;;;7.90;99.90;;;;;;4958926;28;20023;-82
2023/01/14 00:39:20;;;;;;;24.08;4.25;;;8.00;99.90;;;;;;4958879;28;20054;-82
2023/01/14 00:41:46;;;;;;;18.88;2.95;;;7.90;99.90;;;;;;4976626;28;20023;-82
2023/01/14 00:44:12;;;;;;;16.67;3.15;;;7.90;99.90;;;;;;4974542;28;20039;-82
2023/01/14 00:46:39;;;;;;;23.13;3.22;;;7.90;99.90;;;;;;4976229;28;20018;-83
2023/01/14 00:49:07;;;;;;;23.23;3.75;;;7.90;99.90;;;;;;4974867;28;20027;-83
2023/01/14 00:51:33;;;;;;;17.63;3.03;;;8.00;99.90;;;;;;4976028;28;20102;-83
2023/01/14 00:54:00;;;;;;;18.70;3.92;;;8.00;99.90;;;;;;4975778;28;20107;-83
2023/01/14 00:56:26;;;;;;;16.80;3.30;;;8.00;99.90;;;;;;4974564;28;20054;-82
2023/01/14 00:58:52;;;;;;;25.42;3.50;;;7.90;99.90;;;;;;4974640;28;20031;-83
2023/01/14 01:01:18;;;;;;;18.38;2.92;;;7.90;99.90;;;;;;4974744;28;20057;-83
2023/01/14 01:03:50;;;;;;;22.00;4.72;;;7.90;99.90;;;;;;4974699;28;20070;-82
2023/01/14 01:06:18;;;;;;;22.05;4.38;;;7.90;99.90;;;;;;4974369;28;20490;-84
2023/01/14 01:08:44;;;;;;;21.08;3.80;;;7.90;99.90;;;;;;4958161;28;20027;-82
2023/01/14 01:11:10;;;;;;;22.13;3.85;;;7.90;99.90;;;;;;4973849;28;20062;-83
2023/01/14 01:13:36;;;;;;;23.50;4.15;;;7.90;99.90;;;;;;4958283;28;20177;-81
2023/01/14 01:16:06;;;;;;;23.25;3.00;;;7.90;99.90;;;;;;4974460;28;20018;-83
2023/01/14 01:18:33;;;;;;;22.27;3.58;;;7.90;99.90;;;;;;4973859;28;20018;-83
2023/01/14 01:21:08;;;;;;;23.60;3.50;;;7.90;99.90;;;;;;4958084;28;20033;-82
2023/01/14 01:23:35;;;;;;;22.38;3.22;;;7.90;99.90;;;;;;4974016;28;20037;-82
2023/01/14 01:26:05;;;;;;;18.88;3.30;;;7.90;99.90;;;;;;4976346;28;20037;-83
2023/01/14 01:28:31;;;;;;;18.98;2.75;;;7.90;99.90;;;;;;4977326;28;20102;-84
2023/01/14 01:31:06;;;;;;;25.55;3.65;;;7.90;99.90;;;;;;4960984;28;20027;-82
2023/01/14 01:33:32;;;;;;;22.85;3.70;;;7.90;99.90;;;;;;4977123;28;20478;-83
2023/01/14 01:36:06;;;;;;;23.85;3.70;;;7.90;99.90;;;;;;4976789;28;20054;-83
2023/01/14 01:38:32;;;;;;;16.40;2.72;;;7.80;99.90;;;;;;4961533;28;20032;-83
2023/01/14 01:40:59;;;;;;;22.40;3.53;;;7.80;99.90;;;;;;4994613;28;20034;-83
2023/01/14 01:43:28;;;;;;;23.95;3.40;;;7.80;99.90;;;;;;4977098;28;20494;-84
2023/01/14 01:45:56;;;;;;;21.23;3.05;;;7.80;99.90;;;;;;4977072;28;20734;-83
2023/01/14 01:48:30;;;;;;;27.10;3.80;;;7.80;99.90;;;;;;4976932;28;20034;-85
2023/01/14 01:51:02;;;;;;;18.83;3.80;;;7.80;99.90;;;;;;4994189;28;20474;-82
2023/01/14 01:53:29;;;;;;;19.58;2.63;;;7.80;99.90;;;;;;4994400;28;20026;-83
2023/01/14 01:55:57;;;;;;;25.08;3.83;;;7.80;99.90;;;;;;4976542;28;20113;-83
2023/01/14 01:58:26;;;;;;;24.95;3.95;;;7.70;99.90;;;;;;4994455;28;20414;-88
2023/01/14 02:00:52;;;;;;;20.38;3.58;;;7.70;99.90;;;;;;4976804;28;20019;-83
2023/01/14 02:03:42;;;;;;;21.70;3.50;;;7.70;99.90;;;;;;4976587;28;20045;-83
2023/01/14 02:06:08;;;;;;;21.77;4.13;;;7.70;99.90;;;;;;4975929;28;20089;-82
2023/01/14 02:08:36;;;;;;;21.95;2.75;;;7.70;99.90;;;;;;4993840;28;20383;-83
2023/01/14 02:11:17;;;;;;;19.60;3.17;;;7.60;99.90;;;;;;4976666;28;20054;-83
2023/01/14 02:14:01;;;;;;;16.73;3.17;;;7.60;99.90;;;;;;4993863;28;20455;-82
2023/01/14 02:16:41;;;;;;;21.10;3.15;;;7.50;99.90;;;;;;4993875;28;20097;-83
2023/01/14 02:19:17;;;;;;;16.67;2.88;;;7.50;99.90;;;;;;4976757;28;20085;-83
2023/01/14 02:22:04;;;;;;;17.58;3.15;;;7.40;99.90;;;;;;4994056;28;20461;-82
2023/01/14 02:24:51;;;;;;;20.92;3.25;;;7.40;99.90;;;;;;4993828;28;20038;-83
2023/01/14 02:27:26;;;;;;;21.30;3.55;;;7.40;99.90;;;;;;4976126;28;20129;-83
2023/01/14 02:30:15;;;;;;;21.00;4.32;;;7.40;99.90;;;;;;4976609;28;20054;-86
2023/01/14 02:33:08;;;;;;;27.48;3.95;;;7.40;99.90;;;;;;4993662;28;20027;-83
2023/01/14 02:35:41;;;;;;;21.48;3.67;;;7.30;99.90;;;;;;4976258;28;20477;-83
2023/01/14 02:38:21;;;;;;;22.50;4.15;;;7.30;99.90;;;;;;4976300;28;20057;-82
2023/01/14 02:40:53;;;;;;;25.63;4.78;;;7.30;99.90;;;;;;4976422;28;20026;-82
2023/01/14 02:46:40;;;;;;;29.65;4.93;;;7.20;99.90;;;;;;4998101;28;20109;-82
2023/01/14 02:49:11;;;;;;;25.90;4.43;;;7.20;99.90;;;;;;4980527;28;20387;-83
2023/01/14 02:51:41;;;;;;;25.00;4.28;;;7.20;99.90;;;;;;4980336;28;20030;-83
2023/01/14 02:54:07;;;;;;;27.95;4.82;;;7.20;99.90;;;;;;4997659;28;20026;-83
2023/01/14 02:56:34;;;;;;;25.58;5.03;;;7.10;99.90;;;;;;4963744;28;20049;-83
2023/01/14 02:59:11;;;;;;;19.00;3.40;;;7.10;99.90;;;;;;4964086;28;20037;-83
2023/01/14 03:01:43;;;;;;;22.83;4.18;;;7.10;99.90;;;;;;4980204;28;20077;-82
2023/01/14 03:04:19;;;;;;;25.88;4.07;;;7.00;99.90;;;;;;4980203;28;20065;-82
2023/01/14 03:07:03;;;;;;;41.05;5.45;;;7.10;99.90;;;;;;4979986;28;20022;-82
2023/01/14 03:09:43;;;;;;;30.20;5.15;;;7.10;99.90;;;;;;4980017;28;20027;-83
2023/01/14 03:12:23;;;;;;;33.85;5.30;;;7.00;99.90;;;;;;4979940;28;20022;-83
2023/01/14 03:14:55;;;;;;;33.17;5.40;;;7.00;99.90;;;;;;4979622;28;20074;-82
2023/01/14 03:17:30;;;;;;;25.08;4.40;;;7.00;99.90;;;;;;4979557;28;20030;-83
2023/01/14 03:20:11;;;;;;;26.55;4.72;;;7.00;99.90;;;;;;4979591;28;20073;-83
2023/01/14 03:22:40;;;;;;;32.90;5.15;;;7.00;99.90;;;;;;4979545;28;20037;-83
2023/01/14 03:25:08;;;;;;;29.98;4.28;;;7.00;99.90;;;;;;4979364;28;20023;-83
2023/01/14 03:27:36;;;;;;;30.20;4.38;;;6.90;99.90;;;;;;4978845;28;20105;-84
2023/01/14 03:30:12;;;;;;;31.55;4.75;;;6.90;99.90;;;;;;4979464;28;20031;-83
2023/01/14 03:32:53;;;;;;;30.48;5.35;;;6.90;99.90;;;;;;4997534;28;20470;-84
2023/01/14 03:35:27;;;;;;;31.92;4.80;;;6.90;99.90;;;;;;4996925;28;20019;-83
2023/01/14 03:38:27;;;;;;;26.42;5.88;;;6.90;99.90;;;;;;4996909;28;20034;-83
2023/01/14 03:40:56;;;;;;;33.77;6.33;;;6.90;99.90;;;;;;4979778;28;20089;-83
2023/01/14 03:43:42;;;;;;;25.85;3.88;;;6.80;99.90;;;;;;4979184;28;20030;-82
2023/01/14 03:46:09;;;;;;;23.77;4.35;;;6.80;99.90;;;;;;4979584;28;20029;-82
2023/01/14 03:48:35;;;;;;;28.30;5.05;;;6.80;99.90;;;;;;4996578;28;20027;-82
2023/01/14 03:51:20;;;;;;;30.85;4.55;;;6.80;99.90;;;;;;4963918;28;20117;-82
2023/01/14 03:53:54;;;;;;;34.10;4.85;;;6.70;99.90;;;;;;4978872;28;20053;-83
2023/01/14 03:56:37;;;;;;;36.70;4.93;;;6.80;99.90;;;;;;4977984;28;20114;-83
2023/01/14 03:59:10;;;;;;;23.50;4.63;;;6.70;99.90;;;;;;4978803;28;20034;-82
2023/01/14 04:01:39;;;;;;;24.50;3.97;;;6.70;99.90;;;;;;4996512;28;20069;-82
2023/01/14 04:04:06;;;;;;;30.95;5.10;;;6.70;99.90;;;;;;4978687;28;20073;-83
2023/01/14 04:06:32;;;;;;;30.80;5.55;;;6.70;99.90;;;;;;4962712;28;20037;-82
2023/01/14 04:08:58;;;;;;;32.65;4.72;;;6.70;99.90;;;;;;4996071;28;20073;-82
2023/01/14 04:11:23;;;;;;;33.58;5.25;;;6.70;99.90;;;;;;4962465;28;20023;-83
2023/01/14 04:16:33;;;;;;;34.97;5.40;;;6.70;99.90;;;;;;4996366;28;20041;-82
2023/01/14 04:18:58;;;;;;;32.55;6.30;;;6.70;99.90;;;;;;4962627;28;20027;-82
2023/01/14 04:21:24;;;;;;;32.53;5.13;;;6.70;99.90;;;;;;4979031;28;20034;-82
2023/01/14 04:23:50;;;;;;;32.85;4.93;;;6.70;99.90;;;;;;4977998;28;20042;-83
2023/01/14 04:26:16;;;;;;;35.30;4.40;;;6.70;99.90;;;;;;4962227;28;20051;-83
2023/01/14 04:28:42;;;;;;;31.30;4.55;;;6.70;99.90;;;;;;4961887;28;20125;-83
2023/01/14 04:31:07;;;;;;;26.77;4.55;;;6.70;99.90;;;;;;4962094;28;20125;-83
2023/01/14 04:33:33;;;;;;;28.45;3.83;;;6.70;99.90;;;;;;4978320;28;20371;-83
2023/01/14 04:35:59;;;;;;;33.17;3.97;;;6.70;99.90;;;;;;4978031;28;20030;-82
2023/01/14 04:38:24;;;;;;;37.13;5.85;;;6.70;99.90;;;;;;4978038;28;20054;-82
2023/01/14 04:40:52;;;;;;;34.47;5.20;;;6.70;99.90;;;;;;4978278;28;20080;-83
2023/01/14 04:43:18;;;;;;;37.15;5.32;;;6.70;99.90;;;;;;4962114;28;20126;-83
2023/01/14 04:45:47;;;;;;;27.73;5.15;;;6.70;99.90;;;;;;4962080;28;20027;-83
2023/01/14 04:48:18;;;;;;;32.03;4.30;;;6.70;99.90;;;;;;4978416;28;20038;-83
2023/01/14 04:50:48;;;;;;;29.25;4.97;;;6.70;99.90;;;;;;4977788;28;20034;-84
2023/01/14 04:53:20;;;;;;;40.03;5.63;;;6.70;99.90;;;;;;4978115;28;20125;-83
2023/01/14 04:55:47;;;;;;;25.40;4.63;;;6.60;99.90;;;;;;4977890;28;20458;-83
2023/01/14 04:58:15;;;;;;;29.48;4.47;;;6.70;99.90;;;;;;4978194;28;20474;-83
2023/01/14 05:00:42;;;;;;;27.90;4.82;;;6.70;99.90;;;;;;4978049;28;20116;-83
2023/01/14 05:03:10;;;;;;;28.40;4.75;;;6.70;99.90;;;;;;4978250;28;20157;-82
2023/01/14 05:05:37;;;;;;;31.83;4.80;;;6.70;99.90;;;;;;4977688;28;20068;-83
2023/01/14 05:08:04;;;;;;;26.02;5.47;;;6.70;99.90;;;;;;4960966;28;20018;-82
2023/01/14 05:10:30;;;;;;;44.72;5.55;;;6.70;99.90;;;;;;4961706;28;20030;-83
2023/01/14 05:12:56;;;;;;;26.98;4.13;;;6.70;99.90;;;;;;4995189;28;20084;-83
2023/01/14 05:15:34;;;;;;;34.15;4.60;;;6.80;99.90;;;;;;4994921;28;20105;-83
2023/01/14 05:18:00;;;;;;;32.83;4.15;;;6.70;99.90;;;;;;4977212;28;20018;-83
2023/01/14 05:20:27;;;;;;;25.27;4.30;;;6.70;99.90;;;;;;4977084;28;20042;-84
2023/01/14 05:23:02;;;;;;;34.53;4.60;;;6.70;99.90;;;;;;4961110;28;20421;-83
2023/01/14 05:25:29;;;;;;;24.92;4.65;;;6.70;99.90;;;;;;4994666;28;20022;-83
2023/01/14 05:27:59;;;;;;;37.25;5.28;;;6.70;99.90;;;;;;4994239;28;20132;-83
2023/01/14 05:30:25;;;;;;;34.75;4.72;;;6.70;99.90;;;;;;4977149;28;20069;-83
2023/01/14 05:32:51;;;;;;;29.00;4.43;;;6.70;99.90;;;;;;4994209;28;20022;-83
2023/01/14 05:35:17;;;;;;;26.23;4.20;;;6.70;99.90;;;;;;4961433;28;20030;-83
2023/01/14 05:37:43;;;;;;;41.47;6.70;;;6.70;99.90;;;;;;4961023;28;20085;-83
2023/01/14 05:40:09;;;;;;;28.95;3.63;;;6.80;99.90;;;;;;4976803;28;20054;-83
2023/01/14 05:45:38;;;;;;;30.60;4.75;;;6.70;99.90;;;;;;4980143;28;20106;-83
2023/01/14 05:48:04;;;;;;;26.02;3.72;;;6.80;99.90;;;;;;4969340;28;20031;-84
2023/01/14 05:50:30;;;;;;;26.70;4.45;;;6.70;99.90;;;;;;4983179;28;20019;-82
2023/01/14 05:52:56;;;;;;;21.33;3.38;;;6.80;99.90;;;;;;4982867;28;20041;-82
2023/01/14 05:55:22;;;;;;;27.25;4.00;;;6.80;99.90;;;;;;4982793;28;20471;-82
2023/01/14 05:57:47;;;;;;;24.48;3.80;;;6.80;99.90;;;;;;4997871;28;20505;-83
2023/01/14 06:06:20;;;;;;;20.75;3.53;;;6.80;99.90;;;;;;4964253;28;20046;-82
2023/01/14 06:06:47;;;;;;;23.65;3.60;;;6.80;99.90;;;;;;4979861;28;20050;-83
2023/01/14 06:08:40;;;;;;;22.92;5.50;;;6.80;99.90;;;;;;4984857;28;20439;-84
2023/01/14 06:11:08;;;;;;;27.15;3.95;;;6.80;99.90;;;;;;4960560;28;20065;-84
2023/01/14 06:13:34;;;;;;;27.17;3.97;;;6.80;99.90;;;;;;4960604;28;20062;-83
2023/01/14 06:16:02;;;;;;;20.90;4.18;;;6.80;99.90;;;;;;4960583;28;20382;-83
2023/01/14 06:18:37;;;;;;;23.90;3.63;;;6.90;99.90;;;;;;4959118;28;20077;-83
2023/01/14 06:21:06;;;;;;;21.52;3.40;;;6.80;99.90;;;;;;4960138;28;20037;-83
2023/01/14 06:23:34;;;;;;;25.30;3.75;;;6.80;99.90;;;;;;4960087;28;20034;-83
2023/01/14 06:26:00;;;;;;;23.85;3.72;;;6.90;99.90;;;;;;4976359;28;20049;-83
2023/01/14 06:28:27;;;;;;;22.65;3.70;;;6.90;99.90;;;;;;4960667;28;20058;-83
2023/01/14 06:30:53;;;;;;;20.85;3.05;;;6.90;99.90;;;;;;4960342;28;20551;-83
2023/01/14 06:33:19;;;;;;;22.10;3.78;;;6.90;99.90;;;;;;4976906;28;20030;-84
2023/01/14 06:35:45;;;;;;;25.63;3.30;;;6.90;99.90;;;;;;4960553;28;20382;-83
2023/01/14 06:38:12;;;;;;;26.23;3.65;;;6.90;99.90;;;;;;4976688;28;20037;-83
2023/01/14 06:40:39;;;;;;;21.05;3.30;;;7.00;99.90;;;;;;4976847;28;20026;-83
2023/01/14 06:43:06;;;;;;;23.75;3.40;;;7.00;99.90;;;;;;4960265;28;20030;-83
2023/01/14 06:45:32;;;;;;;20.45;3.70;;;7.00;99.90;;;;;;4976313;28;20018;-84
2023/01/14 06:47:58;;;;;;;20.08;4.20;;;7.00;99.90;;;;;;4975856;28;20049;-84
2023/01/14 06:50:23;;;;;;;19.67;3.55;;;7.00;99.90;;;;;;4993583;28;20077;-84
2023/01/14 06:52:49;;;;;;;18.20;3.83;;;7.00;99.90;;;;;;4993406;28;20084;-83
2023/01/14 06:55:21;;;;;;;19.33;3.90;;;7.10;99.90;;;;;;4975975;28;20425;-84
2023/01/14 06:57:47;;;;;;;22.73;3.28;;;7.00;99.90;;;;;;4959983;28;20023;-83
2023/01/14 07:00:13;;;;;;;20.35;4.00;;;7.10;99.90;;;;;;4976200;28;20030;-85
2023/01/14 07:02:39;;;;;;;24.92;4.10;;;7.10;99.90;;;;;;4976388;28;20018;-83
2023/01/14 07:05:06;;;;;;;21.33;3.10;;;7.10;99.90;;;;;;4960023;28;20501;-84
2023/01/14 07:07:32;;;;;;;29.92;4.22;;;7.10;99.90;;;;;;4960592;28;20030;-83
2023/01/14 07:09:57;;;;;;;23.27;3.63;;;7.10;99.90;;;;;;4976357;28;20034;-83
2023/01/14 07:12:23;;;;;;;22.55;4.30;;;7.10;99.90;;;;;;4959992;28;20041;-84
2023/01/14 07:14:49;;;;;;;22.17;3.85;;;7.10;99.90;;;;;;4960469;28;20124;-84
2023/01/14 07:17:14;;;;;;;21.80;3.95;;;7.10;99.90;;;;;;4959831;28;20466;-83
2023/01/14 07:19:40;;;;;;;19.92;2.97;;;7.10;99.90;;;;;;4976770;28;20462;-83
2023/01/14 07:22:06;;;;;;;18.73;4.07;;;7.10;99.90;;;;;;4960139;28;20055;-82
2023/01/14 07:24:31;;;;;;;24.10;4.00;;;7.10;99.90;;;;;;4976822;28;20045;-82
2023/01/14 07:26:57;;;;;;;20.10;3.28;;;7.10;99.90;;;;;;4960551;28;20051;-83
2023/01/14 07:29:22;;;;;;;22.17;3.63;;;7.10;99.90;;;;;;4977885;28;20038;-83
2023/01/14 07:31:51;;;;;;;20.33;4.28;;;7.10;99.90;;;;;;4980132;28;20030;-82
2023/01/14 07:34:16;;;;;;;25.98;4.55;;;7.10;99.90;;;;;;4964319;28;20054;-83
2023/01/14 07:36:42;;;;;;;25.63;3.65;;;7.10;99.90;;;;;;4980085;28;20057;-83
2023/01/14 07:39:08;;;;;;;13.88;3.28;;;7.10;99.90;;;;;;4979616;28;20058;-82
2023/01/14 07:41:34;;;;;;;24.10;3.13;;;7.10;99.90;;;;;;4979290;28;20026;-83
2023/01/14 07:44:02;;;;;;;23.98;4.20;;;7.10;99.90;;;;;;4963485;28;20035;-84
2023/01/14 07:46:28;;;;;;;19.50;3.85;;;7.10;99.90;;;;;;4963266;28;20033;-82
2023/01/14 07:48:53;;;;;;;24.15;3.22;;;7.00;99.90;;;;;;4962891;28;20030;-82
2023/01/14 07:51:20;;;;;;;17.20;2.42;;;7.00;99.90;;;;;;4978736;28;20110;-83
2023/01/14 07:53:47;;;;;;;19.05;3.42;;;7.00;99.90;;;;;;4962043;28;20081;-82
2023/01/14 07:56:13;;;;;;;25.55;4.03;;;7.00;99.90;;;;;;4962986;28;20477;-82
2023/01/14 07:58:39;;;;;;;19.13;3.55;;;7.00;99.90;;;;;;4979211;28;20034;-82
2023/01/14 08:01:06;;;;;;;13.35;2.63;;;7.00;99.90;;;;;;4962500;28;20038;-89
2023/01/14 08:03:32;;;;;;;19.15;3.50;;;7.10;99.90;;;;;;4978937;28;20026;-82
2023/01/14 08:06:02;;;;;;;22.50;3.75;;;7.00;99.90;;;;;;4978756;28;20093;-83
2023/01/14 08:08:30;;;;;;;14.10;3.00;;;7.00;99.90;;;;;;4962409;28;20041;-83
2023/01/14 08:11:01;;;;;;;15.27;2.97;;;7.00;99.90;;;;;;4979008;28;20029;-82
2023/01/14 08:13:27;;;;;;;16.08;3.42;;;7.00;99.90;;;;;;4978196;28;20038;-82
2023/01/14 08:16:00;;;;;;;26.55;4.65;;;7.00;99.90;;;;;;4962450;28;20049;-82
2023/01/14 08:18:26;;;;;;;25.05;4.32;;;7.10;99.90;;;;;;4962387;28;20474;-82
2023/01/14 08:21:11;;;;;;;17.33;3.70;;;7.00;99.90;;;;;;4978436;28;20026;-83
2023/01/14 08:23:37;;;;;;;17.55;2.95;;;7.00;99.90;;;;;;4962292;28;20065;-83
2023/01/14 08:26:08;;;;;;;15.02;3.40;;;7.00;99.90;;;;;;4978450;28;20061;-82
2023/01/14 08:28:35;;;;;;;24.58;3.75;;;7.10;99.90;;;;;;4978442;28;20132;-83
2023/01/14 08:31:05;;;;;;;18.17;3.17;;;7.10;99.90;;;;;;4962294;28;20026;-82
2023/01/14 08:33:32;;;;;;;19.48;3.53;;;7.10;99.90;;;;;;4978280;28;20034;-82
2023/01/14 08:36:05;;;;;;;14.93;3.45;;;7.20;99.90;;;;;;4962180;28;20478;-82
2023/01/14 08:38:35;;;;;;;17.63;2.88;;;7.10;99.90;;;;;;4995412;28;20054;-83
2023/01/14 08:41:06;;;;;;;16.48;3.50;;;7.20;99.90;;;;;;4961860;28;20034;-82
2023/01/14 08:43:32;;;;;;;10.80;2.78;;;7.20;99.90;;;;;;4977978;28;20034;-82
2023/01/14 08:45:59;;;;;;;15.23;3.03;;;7.20;99.90;;;;;;4995410;28;20023;-82
2023/01/14 08:48:27;;;;;;;16.13;3.10;;;7.20;99.90;;;;;;4995309;28;20034;-83
2023/01/14 08:50:53;;;;;;;13.32;3.28;;;7.30;99.90;;;;;;4962276;28;20030;-84
2023/01/14 08:53:19;;;;;;;16.33;4.07;;;7.30;99.90;;;;;;4977977;28;20026;-83
2023/01/14 08:55:45;;;;;;;11.27;2.85;;;7.30;99.90;;;;;;4978037;28;20030;-83
2023/01/14 08:58:11;;;;;;;11.50;2.55;;;7.30;99.90;;;;;;4961790;28;20022;-83
2023/01/14 09:00:37;;;;;;;11.77;2.63;;;7.40;99.90;;;;;;4977773;28;20609;-83
2023/01/14 09:03:02;;;;;;;12.05;2.72;;;7.40;99.90;;;;;;4961386;28;20030;-83
2023/01/14 09:05:30;;;;;;;12.88;3.10;;;7.40;99.90;;;;;;4977496;28;20497;-84
2023/01/14 09:19:09;;;;;;;12.85;2.67;;;7.60;99.90;;;;;;4995199;28;20044;-83
2023/01/14 09:21:34;;;;;;;12.10;2.60;;;7.50;99.90;;;;;;4994612;28;20038;-83
2023/01/14 09:24:00;;;;;;;15.88;3.67;;;7.60;99.90;;;;;;4977281;28;20549;-83
2023/01/14 09:26:26;;;;;;;11.50;3.00;;;7.60;99.90;;;;;;4960946;28;20026;-83
2023/01/14 09:28:51;;;;;;;13.85;2.60;;;7.60;99.90;;;;;;4961137;28;20037;-83
2023/01/14 09:31:17;;;;;;;12.88;2.67;;;7.70;99.90;;;;;;4961037;28;20026;-84
2023/01/14 09:33:43;;;;;;;9.18;2.70;;;7.70;99.90;;;;;;4977145;28;20042;-83
2023/01/14 09:36:08;;;;;;;10.50;2.88;;;7.70;99.90;;;;;;4961020;28;20026;-83
2023/01/14 09:38:37;;;;;;;10.63;2.40;;;7.80;99.90;;;;;;4976881;28;20018;-83
2023/01/14 09:41:26;;;;;;;14.65;3.17;;;7.80;99.90;;;;;;4960611;28;20125;-85
2023/01/14 09:43:59;;;;;;;12.02;2.55;;;7.90;99.90;;;;;;4976960;28;20027;-86
2023/01/14 09:46:35;;;;;;;11.52;2.65;;;7.90;99.90;;;;;;4974004;28;20091;-85
2023/01/14 09:49:14;;;;;;;;;;;;;;;;;;;;;
2023/01/14 09:52:15;;;;;;;9.20;2.33;;;8.00;99.90;;;;;;4994350;28;20028;-84
2023/01/14 09:54:52;;;;;;;12.00;2.40;;;8.00;99.90;;;;;;4976896;28;20034;-85
2023/01/14 09:57:50;;;;;;;7.47;2.15;;;8.00;99.90;;;;;;4977157;28;20030;-87
2023/01/14 10:00:29;;;;;;;10.00;2.13;;;8.10;99.90;;;;;;4994225;28;20385;-87
2023/01/14 10:03:01;;;;;;;8.45;1.52;;;8.10;99.90;;;;;;4961308;28;20067;-84
2023/01/14 10:05:38;;;;;;;8.57;1.75;;;8.10;99.90;;;;;;4976623;28;20478;-85
2023/01/14 10:08:10;;;;;;;6.63;1.50;;;8.10;99.90;;;;;;4976286;28;20034;-85
2023/01/14 10:10:52;;;;;;;9.85;1.85;;;8.10;99.90;;;;;;4975340;28;20505;-85
2023/01/14 10:13:39;;;;;;;8.23;1.52;;;8.20;99.90;;;;;;4961664;28;20027;-87
2023/01/14 10:16:14;;;;;;;6.32;1.52;;;8.20;99.90;;;;;;4975780;28;20465;-84
2023/01/14 10:18:50;;;;;;;7.80;1.92;;;8.20;99.90;;;;;;4976143;28;20030;-85
2023/01/14 10:21:44;;;;;;;5.70;1.50;;;8.20;99.90;;;;;;4993624;28;20474;-84
2023/01/14 10:24:18;;;;;;;5.97;1.45;;;8.20;99.90;;;;;;4974653;28;20062;-89
2023/01/14 10:26:57;;;;;;;9.18;1.70;;;8.20;99.90;;;;;;4976687;28;20033;-85
2023/01/14 10:29:40;;;;;;;;;;;;;;;;;;;;;
2023/01/14 10:32:14;;;;;;;7.45;1.85;;;8.20;99.90;;;;;;4980367;28;20024;-85
2023/01/14 10:34:50;;;;;;;6.63;1.75;;;8.20;99.90;;;;;;4974210;28;20031;-83
2023/01/14 10:37:16;;;;;;;11.18;2.17;;;8.20;99.90;;;;;;4976013;28;20117;-82
2023/01/14 10:39:50;;;;;;;4.53;1.65;;;8.30;99.90;;;;;;4976037;28;20466;-83
2023/01/14 10:42:21;;;;;;;7.32;1.60;;;8.20;99.90;;;;;;4976173;28;20466;-83
2023/01/14 10:44:48;;;;;;;8.43;1.85;;;8.20;99.90;;;;;;4975833;28;20086;-83
2023/01/14 10:47:16;;;;;;;7.05;1.80;;;8.30;99.90;;;;;;4975472;28;20113;-86
2023/01/14 10:50:00;;;;;;;8.43;1.60;;;8.30;99.90;;;;;;4974621;28;20022;-82
2023/01/14 10:52:35;;;;;;;6.28;1.58;;;8.30;99.90;;;;;;4976031;28;20026;-85
2023/01/14 10:55:33;;;;;;;10.60;2.38;;;8.40;99.90;;;;;;4993937;28;20064;-86
2023/01/14 10:58:21;;;;;;;9.43;1.60;;;8.40;99.90;;;;;;4960417;28;20077;-83
2023/01/14 11:00:50;;;;;;;7.75;1.70;;;8.50;99.90;;;;;;4973359;28;20034;-83
2023/01/14 11:03:42;;;;;;;5.90;1.55;;;8.50;99.90;;;;;;4978305;28;20138;-84
2023/01/14 11:06:19;;;;;;;9.32;2.10;;;8.60;99.90;;;;;;4982870;28;20080;-82
2023/01/14 11:08:51;;;;;;;8.07;1.95;;;8.60;99.90;;;;;;4979657;28;20053;-83
2023/01/14 11:11:37;;;;;;;6.88;1.35;;;8.60;99.90;;;;;;4960500;28;20037;-84
2023/01/14 11:14:38;;;;;;;8.50;1.80;;;8.70;99.90;;;;;;4960411;28;20475;-84
2023/01/14 11:17:24;;;;;;;6.50;1.50;;;8.70;99.90;;;;;;4960616;28;20076;-83
2023/01/14 11:20:10;;;;;;;7.25;1.40;;;8.70;99.90;;;;;;4960225;28;20471;-83
2023/01/14 11:22:50;;;;;;;8.57;1.80;;;8.70;99.90;;;;;;4981551;28;20026;-84
2023/01/14 11:25:23;;;;;;;9.27;1.92;;;8.70;99.90;;;;;;4978659;28;20179;-86
2023/01/14 11:27:52;;;;;;;10.88;2.53;;;8.70;99.90;;;;;;5000882;28;20042;-84
2023/01/14 11:30:22;;;;;;;8.73;1.90;;;8.80;99.90;;;;;;5007440;28;20488;-84
2023/01/14 11:32:51;;;;;;;8.65;1.88;;;8.80;99.90;;;;;;5002077;28;20046;-83
2023/01/14 11:35:30;;;;;;;7.75;2.53;;;8.80;99.90;;;;;;4980962;28;20031;-84
2023/01/14 11:37:56;;;;;;;9.05;1.48;;;8.90;99.90;;;;;;4984934;28;20035;-85
2023/01/14 11:43:22;;;;;;;8.40;1.80;;;8.90;99.90;;;;;;4988551;28;20433;-84
2023/01/14 11:46:03;;;;;;;8.88;1.55;;;9.00;99.90;;;;;;4962874;28;20054;-83
2023/01/14 11:48:29;;;;;;;;;;;9.00;99.90;;;;;;4955306;28;20117;-86
2023/01/14 11:50:57;;;;;;;4.40;1.75;;;9.00;99.90;;;;;;4979198;28;20273;-85
2023/01/14 11:53:26;;;;;;;5.90;1.20;;;9.00;99.90;;;;;;4979006;28;20504;-85
2023/01/14 11:55:55;;;;;;;5.22;1.48;;;9.10;99.90;;;;;;4978184;28;20030;-86
2023/01/14 11:58:28;;;;;;;5.40;1.52;;;9.10;99.90;;;;;;4995649;28;20033;-84
2023/01/14 12:00:59;;;;;;;5.28;1.23;;;9.20;99.90;;;;;;4960810;28;20022;-82
2023/01/14 12:03:34;;;;;;;4.28;1.27;;;9.20;99.90;;;;;;4959759;28;20497;-83
2023/01/14 12:06:27;;;;;;;2.40;0.93;;;9.20;99.90;;;;;;4960589;28;20027;-83
2023/01/14 12:08:57;;;;;;;2.72;0.73;;;9.30;99.90;;;;;;4992842;28;20163;-83
2023/01/14 12:11:29;;;;;;;6.28;1.13;;;9.30;99.90;;;;;;5007583;28;20131;-82
2023/01/14 12:17:25;;;;;;;2.55;0.90;;;9.30;99.90;;;;;;4995024;28;20103;-82
2023/01/14 12:20:04;;;;;;;4.03;1.23;;;9.40;99.90;;;;;;4995791;28;20033;-82
2023/01/14 12:22:43;;;;;;;3.80;1.00;;;9.40;99.90;;;;;;4977726;28;20033;-83
2023/01/14 12:25:15;;;;;;;4.78;1.13;;;9.40;99.90;;;;;;4978804;28;20089;-83
2023/01/14 12:27:46;;;;;;;2.65;0.82;;;9.50;99.90;;;;;;4974945;28;20134;-82
2023/01/14 12:30:15;;;;;;;4.38;1.13;;;9.40;99.90;;;;;;4975279;28;20038;-84
2023/01/14 12:32:47;;;;;;;3.33;1.35;;;9.50;99.90;;;;;;4975073;28;20023;-82
2023/01/14 12:35:17;;;;;;;3.65;1.05;;;9.50;99.90;;;;;;4976242;28;20038;-83
2023/01/14 12:37:59;;;;;;;6.78;1.10;;;9.50;99.90;;;;;;4975857;28;20062;-84
2023/01/14 12:46:19;;;;;;;4.70;0.95;;;9.50;99.90;;;;;;4976421;28;20086;-80
2023/01/14 12:48:45;;;;;;;2.20;0.90;;;9.60;99.90;;;;;;4974512;28;20031;-83
2023/01/14 12:51:15;;;;;;;2.78;0.90;;;9.60;99.90;;;;;;4954816;29;20043;-82
2023/01/14 12:53:51;;;;;;;2.55;0.93;;;9.60;99.90;;;;;;4960427;28;20332;-82
2023/01/14 12:56:27;;;;;;;2.13;0.77;;;9.60;99.90;;;;;;4974701;28;20101;-83
2023/01/14 12:58:58;;;;;;;1.33;0.80;;;9.60;99.90;;;;;;4973354;28;20130;-81
2023/01/14 13:01:27;;;;;;;3.85;0.90;;;9.70;99.90;;;;;;4973332;28;20030;-84
2023/01/14 13:04:22;;;;;;;2.35;0.60;;;9.70;99.90;;;;;;4972063;28;20041;-85
2023/01/14 13:07:32;;;;;;;;;;;;;;;;;;;;;
2023/01/14 13:10:05;;;;;;;5.82;1.20;;;9.70;99.90;;;;;;4971284;28;20031;-84
2023/01/14 13:12:50;;;;;;;2.03;1.23;;;9.70;99.90;;;;;;4974639;28;20467;-84
2023/01/14 13:15:19;;;;;;;3.30;1.00;;;9.70;99.90;;;;;;4975609;28;20086;-83
2023/01/14 13:17:56;;;;;;;3.22;1.15;;;9.70;99.90;;;;;;4975549;28;20054;-84
2023/01/14 13:20:35;;;;;;;2.38;1.20;;;9.70;99.90;;;;;;4974720;28;20479;-83
2023/01/14 13:23:02;;;;;;;1.63;1.02;;;9.70;99.90;;;;;;4975249;28;20029;-82
2023/01/14 13:25:34;;;;;;;2.72;1.15;;;9.70;99.90;;;;;;4974477;28;20031;-82
2023/01/14 13:28:23;;;;;;;2.90;1.52;;;9.70;99.90;;;;;;4973622;28;20398;-81
2023/01/14 13:30:51;;;;;;;4.53;1.13;;;9.80;99.90;;;;;;4973460;28;20054;-81
2023/01/14 13:33:27;;;;;;;2.03;1.25;;;9.80;99.90;;;;;;4974197;28;20478;-82
2023/01/14 13:36:14;;;;;;;2.50;1.23;;;9.80;99.90;;;;;;4957895;28;20027;-81
2023/01/14 13:38:58;;;;;;;3.47;1.73;;;9.80;99.90;;;;;;4974019;28;20038;-80
2023/01/14 13:41:45;;;;;;;1.88;1.40;;;9.80;99.90;;;;;;4974148;28;20034;-81
2023/01/14 13:44:21;;;;;;;3.25;1.30;;;9.80;99.90;;;;;;4974018;28;20549;-82
2023/01/14 13:46:53;;;;;;;2.55;1.23;;;9.90;99.90;;;;;;4969781;28;20019;-81
2023/01/14 13:49:29;;;;;;;2.25;1.40;;;9.90;99.90;;;;;;4966221;28;20118;-81
2023/01/14 13:52:02;;;;;;;3.17;1.50;;;9.90;99.90;;;;;;4958103;28;20019;-81